sensor_id;sensor_type;location;lat;lon;timestamp;P1;durP1;ratioP1;P2;durP2;ratioP2
12451;SDS011;6291;48.924;12.204;2023-05-10T00:01:14;4.80;;;3.63;;
12451;SDS011;6291;48.924;12.204;2023-05-10T00:06:18;3.63;;;3.33;;
12451;SDS011;6291;48.924;12.204;2023-05-10T00:11:22;3.90;;;3.60;;
12451;SDS011;6291;48.924;12.204;2023-05-10T00:16:25;4.20;;;3.80;;
12451;SDS011;6291;48.924;12.204;2023-05-10T00:21:30;3.80;;;3.50;;
12451;SDS011;6291;48.924;12.204;2023-05-10T00:26:35;4.13;;;3.53;;
12451;SDS011;6291;48.924;12.204;2023-05-10T00:31:38;4.23;;;3.83;;
12451;SDS011;6291;48.924;12.204;2023-05-10T00:36:43;4.73;;;3.50;;
12451;SDS011;6291;48.924;12.204;2023-05-10T00:41:46;5.27;;;3.83;;
12451;SDS011;6291;48.924;12.204;2023-05-10T00:46:50;4.40;;;3.80;;
12451;SDS011;6291;48.924;12.204;2023-05-10T00:51:55;4.40;;;3.70;;
12451;SDS011;6291;48.924;12.204;2023-05-10T00:57:00;4.70;;;3.72;;
12451;SDS011;6291;48.924;12.204;2023-05-10T01:02:03;4.90;;;3.80;;
12451;SDS011;6291;48.924;12.204;2023-05-10T01:07:08;4.50;;;3.50;;
12451;SDS011;6291;48.924;12.204;2023-05-10T01:12:11;3.80;;;3.50;;
12451;SDS011;6291;48.924;12.204;2023-05-10T01:17:16;4.10;;;3.60;;
12451;SDS011;6291;48.924;12.204;2023-05-10T01:22:33;4.50;;;3.53;;
12451;SDS011;6291;48.924;12.204;2023-05-10T01:28:12;3.88;;;3.50;;
12451;SDS011;6291;48.924;12.204;2023-05-10T01:33:35;6.25;;;4.20;;
12451;SDS011;6291;48.924;12.204;2023-05-10T01:38:42;3.97;;;3.60;;
12451;SDS011;6291;48.924;12.204;2023-05-10T01:43:55;3.90;;;3.58;;
12451;SDS011;6291;48.924;12.204;2023-05-10T01:49:07;4.17;;;3.77;;
12451;SDS011;6291;48.924;12.204;2023-05-10T01:54:12;4.13;;;3.73;;
12451;SDS011;6291;48.924;12.204;2023-05-10T01:59:19;4.47;;;3.83;;
12451;SDS011;6291;48.924;12.204;2023-05-10T02:04:25;5.07;;;3.90;;
12451;SDS011;6291;48.924;12.204;2023-05-10T02:09:30;4.10;;;3.70;;
12451;SDS011;6291;48.924;12.204;2023-05-10T02:14:36;4.40;;;3.80;;
12451;SDS011;6291;48.924;12.204;2023-05-10T02:19:42;5.33;;;4.33;;
12451;SDS011;6291;48.924;12.204;2023-05-10T02:24:47;5.07;;;4.30;;
12451;SDS011;6291;48.924;12.204;2023-05-10T02:29:52;5.30;;;4.50;;
12451;SDS011;6291;48.924;12.204;2023-05-10T02:34:58;5.28;;;4.50;;
12451;SDS011;6291;48.924;12.204;2023-05-10T02:40:04;5.63;;;4.65;;
12451;SDS011;6291;48.924;12.204;2023-05-10T02:45:11;5.60;;;4.80;;
12451;SDS011;6291;48.924;12.204;2023-05-10T02:50:18;5.70;;;5.20;;
12451;SDS011;6291;48.924;12.204;2023-05-10T02:55:23;5.28;;;4.70;;
12451;SDS011;6291;48.924;12.204;2023-05-10T03:00:33;6.37;;;4.53;;
12451;SDS011;6291;48.924;12.204;2023-05-10T03:05:39;6.25;;;5.38;;
12451;SDS011;6291;48.924;12.204;2023-05-10T03:10:46;6.50;;;5.90;;
12451;SDS011;6291;48.924;12.204;2023-05-10T03:15:58;7.50;;;6.80;;
12451;SDS011;6291;48.924;12.204;2023-05-10T03:21:11;7.70;;;6.90;;
12451;SDS011;6291;48.924;12.204;2023-05-10T03:26:17;7.85;;;7.13;;
12451;SDS011;6291;48.924;12.204;2023-05-10T03:31:25;8.07;;;7.28;;
12451;SDS011;6291;48.924;12.204;2023-05-10T03:36:30;9.60;;;8.60;;
12451;SDS011;6291;48.924;12.204;2023-05-10T03:41:34;10.20;;;9.20;;
12451;SDS011;6291;48.924;12.204;2023-05-10T03:46:38;12.43;;;10.90;;
12451;SDS011;6291;48.924;12.204;2023-05-10T03:51:42;11.93;;;10.70;;
12451;SDS011;6291;48.924;12.204;2023-05-10T03:56:46;10.95;;;8.82;;
12451;SDS011;6291;48.924;12.204;2023-05-10T04:01:51;10.25;;;9.13;;
12451;SDS011;6291;48.924;12.204;2023-05-10T04:06:56;12.50;;;9.77;;
12451;SDS011;6291;48.924;12.204;2023-05-10T04:12:00;11.93;;;9.43;;
12451;SDS011;6291;48.924;12.204;2023-05-10T04:17:04;13.27;;;10.20;;
12451;SDS011;6291;48.924;12.204;2023-05-10T04:22:09;13.98;;;10.40;;
12451;SDS011;6291;48.924;12.204;2023-05-10T04:27:12;14.95;;;10.93;;
12451;SDS011;6291;48.924;12.204;2023-05-10T04:32:16;13.98;;;10.45;;
12451;SDS011;6291;48.924;12.204;2023-05-10T04:37:21;14.23;;;11.13;;
12451;SDS011;6291;48.924;12.204;2023-05-10T04:42:25;13.52;;;10.85;;
12451;SDS011;6291;48.924;12.204;2023-05-10T04:47:28;15.48;;;11.73;;
12451;SDS011;6291;48.924;12.204;2023-05-10T04:52:33;15.48;;;11.55;;
12451;SDS011;6291;48.924;12.204;2023-05-10T04:57:36;13.10;;;10.70;;
12451;SDS011;6291;48.924;12.204;2023-05-10T05:02:41;16.85;;;11.13;;
12451;SDS011;6291;48.924;12.204;2023-05-10T05:07:47;13.60;;;9.87;;
12451;SDS011;6291;48.924;12.204;2023-05-10T05:12:50;17.63;;;11.77;;
12451;SDS011;6291;48.924;12.204;2023-05-10T05:17:54;15.90;;;11.77;;
12451;SDS011;6291;48.924;12.204;2023-05-10T05:22:58;14.60;;;11.43;;
12451;SDS011;6291;48.924;12.204;2023-05-10T05:28:02;13.27;;;10.70;;
12451;SDS011;6291;48.924;12.204;2023-05-10T05:33:05;15.65;;;12.02;;
12451;SDS011;6291;48.924;12.204;2023-05-10T05:38:10;18.00;;;12.27;;
12451;SDS011;6291;48.924;12.204;2023-05-10T05:43:14;18.02;;;12.25;;
12451;SDS011;6291;48.924;12.204;2023-05-10T05:48:17;14.05;;;10.93;;
12451;SDS011;6291;48.924;12.204;2023-05-10T05:53:21;13.68;;;10.77;;
12451;SDS011;6291;48.924;12.204;2023-05-10T05:58:25;13.00;;;10.27;;
12451;SDS011;6291;48.924;12.204;2023-05-10T06:03:28;13.13;;;10.03;;
12451;SDS011;6291;48.924;12.204;2023-05-10T06:08:34;14.38;;;9.65;;
12451;SDS011;6291;48.924;12.204;2023-05-10T06:13:37;11.80;;;9.00;;
12451;SDS011;6291;48.924;12.204;2023-05-10T06:18:40;11.73;;;9.50;;
12451;SDS011;6291;48.924;12.204;2023-05-10T06:23:45;11.05;;;9.60;;
12451;SDS011;6291;48.924;12.204;2023-05-10T06:28:48;10.40;;;9.03;;
12451;SDS011;6291;48.924;12.204;2023-05-10T06:33:51;9.50;;;8.50;;
12451;SDS011;6291;48.924;12.204;2023-05-10T06:38:58;10.47;;;9.30;;
12451;SDS011;6291;48.924;12.204;2023-05-10T06:44:01;10.23;;;8.60;;
12451;SDS011;6291;48.924;12.204;2023-05-10T06:49:05;9.77;;;8.20;;
12451;SDS011;6291;48.924;12.204;2023-05-10T06:54:09;9.83;;;8.27;;
12451;SDS011;6291;48.924;12.204;2023-05-10T06:59:13;9.00;;;7.53;;
12451;SDS011;6291;48.924;12.204;2023-05-10T07:04:17;9.23;;;7.40;;
12451;SDS011;6291;48.924;12.204;2023-05-10T07:09:22;7.35;;;6.50;;
12451;SDS011;6291;48.924;12.204;2023-05-10T07:14:26;11.67;;;10.03;;
12451;SDS011;6291;48.924;12.204;2023-05-10T07:19:30;11.95;;;9.73;;
12451;SDS011;6291;48.924;12.204;2023-05-10T07:24:35;9.23;;;8.30;;
12451;SDS011;6291;48.924;12.204;2023-05-10T07:29:38;9.25;;;8.05;;
12451;SDS011;6291;48.924;12.204;2023-05-10T07:34:42;8.47;;;7.67;;
12451;SDS011;6291;48.924;12.204;2023-05-10T07:39:46;8.68;;;7.78;;
12451;SDS011;6291;48.924;12.204;2023-05-10T07:44:50;9.73;;;8.07;;
12451;SDS011;6291;48.924;12.204;2023-05-10T07:49:53;9.20;;;8.30;;
12451;SDS011;6291;48.924;12.204;2023-05-10T07:54:58;8.50;;;7.47;;
12451;SDS011;6291;48.924;12.204;2023-05-10T08:00:01;9.57;;;8.07;;
12451;SDS011;6291;48.924;12.204;2023-05-10T08:05:13;7.70;;;6.90;;
12451;SDS011;6291;48.924;12.204;2023-05-10T08:10:18;7.63;;;6.93;;
12451;SDS011;6291;48.924;12.204;2023-05-10T08:15:22;9.83;;;8.60;;
12451;SDS011;6291;48.924;12.204;2023-05-10T08:20:25;8.98;;;8.07;;
12451;SDS011;6291;48.924;12.204;2023-05-10T08:25:30;9.32;;;8.32;;
12451;SDS011;6291;48.924;12.204;2023-05-10T08:30:34;11.38;;;9.63;;
12451;SDS011;6291;48.924;12.204;2023-05-10T08:35:37;9.07;;;8.05;;
12451;SDS011;6291;48.924;12.204;2023-05-10T08:40:42;8.07;;;7.27;;
12451;SDS011;6291;48.924;12.204;2023-05-10T08:45:47;7.80;;;7.03;;
12451;SDS011;6291;48.924;12.204;2023-05-10T08:50:53;9.00;;;8.10;;
12451;SDS011;6291;48.924;12.204;2023-05-10T08:55:58;7.00;;;6.30;;
12451;SDS011;6291;48.924;12.204;2023-05-10T09:01:05;6.18;;;5.60;;
12451;SDS011;6291;48.924;12.204;2023-05-10T09:06:10;6.60;;;6.00;;
12451;SDS011;6291;48.924;12.204;2023-05-10T09:11:17;6.50;;;5.85;;
12451;SDS011;6291;48.924;12.204;2023-05-10T09:16:20;3.10;;;2.80;;
12451;SDS011;6291;48.924;12.204;2023-05-10T09:21:24;3.73;;;3.43;;
12451;SDS011;6291;48.924;12.204;2023-05-10T09:26:29;5.20;;;4.70;;
12451;SDS011;6291;48.924;12.204;2023-05-10T09:31:46;4.22;;;3.83;;
12451;SDS011;6291;48.924;12.204;2023-05-10T09:36:54;3.90;;;3.20;;
12451;SDS011;6291;48.924;12.204;2023-05-10T09:42:01;3.88;;;3.58;;
12451;SDS011;6291;48.924;12.204;2023-05-10T09:47:06;3.63;;;3.33;;
12451;SDS011;6291;48.924;12.204;2023-05-10T09:52:09;3.50;;;3.20;;
12451;SDS011;6291;48.924;12.204;2023-05-10T09:57:19;3.13;;;2.83;;
12451;SDS011;6291;48.924;12.204;2023-05-10T10:02:28;2.75;;;2.55;;
12451;SDS011;6291;48.924;12.204;2023-05-10T10:07:31;3.13;;;2.83;;
12451;SDS011;6291;48.924;12.204;2023-05-10T10:12:36;2.87;;;1.87;;
12451;SDS011;6291;48.924;12.204;2023-05-10T10:17:40;1.27;;;1.20;;
12451;SDS011;6291;48.924;12.204;2023-05-10T10:22:44;0.77;;;0.70;;
12451;SDS011;6291;48.924;12.204;2023-05-10T10:27:55;1.55;;;0.70;;
12451;SDS011;6291;48.924;12.204;2023-05-10T10:39:00;1.73;;;0.60;;
12451;SDS011;6291;48.924;12.204;2023-05-10T10:44:25;0.80;;;0.50;;
12451;SDS011;6291;48.924;12.204;2023-05-10T10:49:42;0.55;;;0.55;;
12451;SDS011;6291;48.924;12.204;2023-05-10T10:54:50;0.63;;;0.38;;
12451;SDS011;6291;48.924;12.204;2023-05-10T11:05:25;2.47;;;2.00;;
12451;SDS011;6291;48.924;12.204;2023-05-10T11:16:21;3.55;;;2.42;;
12451;SDS011;6291;48.924;12.204;2023-05-10T11:21:26;2.50;;;2.10;;
12451;SDS011;6291;48.924;12.204;2023-05-10T11:26:30;2.90;;;2.22;;
12451;SDS011;6291;48.924;12.204;2023-05-10T11:31:38;2.30;;;2.10;;
12451;SDS011;6291;48.924;12.204;2023-05-10T11:36:45;2.30;;;2.10;;
12451;SDS011;6291;48.924;12.204;2023-05-10T11:41:55;2.73;;;1.90;;
12451;SDS011;6291;48.924;12.204;2023-05-10T11:47:00;3.17;;;2.00;;
12451;SDS011;6291;48.924;12.204;2023-05-10T11:52:05;2.13;;;1.60;;
12451;SDS011;6291;48.924;12.204;2023-05-10T11:57:08;1.50;;;1.40;;
12451;SDS011;6291;48.924;12.204;2023-05-10T12:02:13;1.45;;;1.30;;
12451;SDS011;6291;48.924;12.204;2023-05-10T12:07:17;2.13;;;1.60;;
12451;SDS011;6291;48.924;12.204;2023-05-10T12:12:20;2.70;;;1.50;;
12451;SDS011;6291;48.924;12.204;2023-05-10T12:17:28;3.88;;;1.80;;
12451;SDS011;6291;48.924;12.204;2023-05-10T12:22:33;3.63;;;1.90;;
12451;SDS011;6291;48.924;12.204;2023-05-10T12:27:36;2.40;;;2.07;;
12451;SDS011;6291;48.924;12.204;2023-05-10T12:32:41;4.30;;;2.10;;
12451;SDS011;6291;48.924;12.204;2023-05-10T12:37:46;3.30;;;2.87;;
12451;SDS011;6291;48.924;12.204;2023-05-10T12:42:50;1.80;;;1.70;;
12451;SDS011;6291;48.924;12.204;2023-05-10T12:47:55;3.42;;;1.50;;
12451;SDS011;6291;48.924;12.204;2023-05-10T12:52:58;1.60;;;1.50;;
12451;SDS011;6291;48.924;12.204;2023-05-10T12:58:02;1.92;;;1.75;;
12451;SDS011;6291;48.924;12.204;2023-05-10T13:03:07;2.35;;;1.90;;
12451;SDS011;6291;48.924;12.204;2023-05-10T13:08:10;3.00;;;2.00;;
12451;SDS011;6291;48.924;12.204;2023-05-10T13:13:13;2.20;;;2.00;;
12451;SDS011;6291;48.924;12.204;2023-05-10T13:18:19;2.15;;;1.92;;
12451;SDS011;6291;48.924;12.204;2023-05-10T13:23:22;2.20;;;1.40;;
12451;SDS011;6291;48.924;12.204;2023-05-10T13:28:26;2.25;;;0.93;;
12451;SDS011;6291;48.924;12.204;2023-05-10T13:33:31;5.03;;;3.35;;
12451;SDS011;6291;48.924;12.204;2023-05-10T13:38:34;4.03;;;2.40;;
12451;SDS011;6291;48.924;12.204;2023-05-10T13:43:37;1.90;;;1.63;;
12451;SDS011;6291;48.924;12.204;2023-05-10T13:48:42;4.75;;;1.92;;
12451;SDS011;6291;48.924;12.204;2023-05-10T13:53:45;1.80;;;1.33;;
12451;SDS011;6291;48.924;12.204;2023-05-10T13:58:49;1.80;;;1.40;;
12451;SDS011;6291;48.924;12.204;2023-05-10T14:03:54;2.60;;;1.15;;
12451;SDS011;6291;48.924;12.204;2023-05-10T14:08:57;2.78;;;1.40;;
12451;SDS011;6291;48.924;12.204;2023-05-10T14:14:00;1.73;;;1.60;;
12451;SDS011;6291;48.924;12.204;2023-05-10T14:19:05;1.92;;;1.73;;
12451;SDS011;6291;48.924;12.204;2023-05-10T14:24:08;1.63;;;1.52;;
12451;SDS011;6291;48.924;12.204;2023-05-10T14:29:12;1.45;;;1.20;;
12451;SDS011;6291;48.924;12.204;2023-05-10T14:34:16;3.05;;;1.80;;
12451;SDS011;6291;48.924;12.204;2023-05-10T14:39:19;2.42;;;2.03;;
12451;SDS011;6291;48.924;12.204;2023-05-10T14:44:24;2.72;;;2.10;;
12451;SDS011;6291;48.924;12.204;2023-05-10T14:49:28;3.00;;;2.17;;
12451;SDS011;6291;48.924;12.204;2023-05-10T14:54:32;6.17;;;4.10;;
12451;SDS011;6291;48.924;12.204;2023-05-10T14:59:35;3.23;;;2.30;;
12451;SDS011;6291;48.924;12.204;2023-05-10T15:04:40;2.63;;;2.42;;
12451;SDS011;6291;48.924;12.204;2023-05-10T15:09:44;3.13;;;1.67;;
12451;SDS011;6291;48.924;12.204;2023-05-10T15:14:48;1.67;;;1.58;;
12451;SDS011;6291;48.924;12.204;2023-05-10T15:19:52;1.80;;;1.70;;
12451;SDS011;6291;48.924;12.204;2023-05-10T15:24:56;1.60;;;1.50;;
12451;SDS011;6291;48.924;12.204;2023-05-10T15:29:59;1.70;;;1.50;;
12451;SDS011;6291;48.924;12.204;2023-05-10T15:35:04;2.55;;;1.45;;
12451;SDS011;6291;48.924;12.204;2023-05-10T15:40:08;3.05;;;1.92;;
12451;SDS011;6291;48.924;12.204;2023-05-10T15:45:12;2.63;;;2.20;;
12451;SDS011;6291;48.924;12.204;2023-05-10T15:50:18;2.20;;;1.60;;
12451;SDS011;6291;48.924;12.204;2023-05-10T15:55:21;2.13;;;1.92;;
12451;SDS011;6291;48.924;12.204;2023-05-10T16:00:25;1.73;;;1.60;;
12451;SDS011;6291;48.924;12.204;2023-05-10T16:05:29;2.20;;;1.80;;
12451;SDS011;6291;48.924;12.204;2023-05-10T16:10:34;2.63;;;1.90;;
12451;SDS011;6291;48.924;12.204;2023-05-10T16:15:39;2.50;;;2.20;;
12451;SDS011;6291;48.924;12.204;2023-05-10T16:20:44;3.43;;;2.20;;
12451;SDS011;6291;48.924;12.204;2023-05-10T16:25:48;2.20;;;1.90;;
12451;SDS011;6291;48.924;12.204;2023-05-10T16:30:51;2.73;;;1.73;;
12451;SDS011;6291;48.924;12.204;2023-05-10T16:35:56;3.00;;;1.50;;
12451;SDS011;6291;48.924;12.204;2023-05-10T16:41:00;3.83;;;2.00;;
12451;SDS011;6291;48.924;12.204;2023-05-10T16:46:08;2.37;;;1.73;;
12451;SDS011;6291;48.924;12.204;2023-05-10T16:51:13;4.53;;;1.83;;
12451;SDS011;6291;48.924;12.204;2023-05-10T16:56:17;2.80;;;2.10;;
12451;SDS011;6291;48.924;12.204;2023-05-10T17:01:22;3.90;;;2.33;;
12451;SDS011;6291;48.924;12.204;2023-05-10T17:06:28;2.50;;;1.80;;
12451;SDS011;6291;48.924;12.204;2023-05-10T17:11:32;2.17;;;1.50;;
12451;SDS011;6291;48.924;12.204;2023-05-10T17:16:35;3.35;;;2.33;;
12451;SDS011;6291;48.924;12.204;2023-05-10T17:21:40;2.10;;;1.90;;
12451;SDS011;6291;48.924;12.204;2023-05-10T17:26:43;1.73;;;1.63;;
12451;SDS011;6291;48.924;12.204;2023-05-10T17:31:47;2.45;;;2.08;;
12451;SDS011;6291;48.924;12.204;2023-05-10T17:36:52;2.80;;;2.10;;
12451;SDS011;6291;48.924;12.204;2023-05-10T17:41:56;2.15;;;1.95;;
12451;SDS011;6291;48.924;12.204;2023-05-10T17:46:59;2.67;;;2.42;;
12451;SDS011;6291;48.924;12.204;2023-05-10T17:52:04;2.60;;;2.40;;
12451;SDS011;6291;48.924;12.204;2023-05-10T17:57:09;3.23;;;2.83;;
12451;SDS011;6291;48.924;12.204;2023-05-10T18:02:13;3.60;;;2.70;;
12451;SDS011;6291;48.924;12.204;2023-05-10T18:07:18;2.85;;;2.60;;
12451;SDS011;6291;48.924;12.204;2023-05-10T18:12:24;2.75;;;2.47;;
12451;SDS011;6291;48.924;12.204;2023-05-10T18:17:27;2.95;;;2.15;;
12451;SDS011;6291;48.924;12.204;2023-05-10T18:22:32;2.47;;;2.28;;
12451;SDS011;6291;48.924;12.204;2023-05-10T18:27:38;3.13;;;2.70;;
12451;SDS011;6291;48.924;12.204;2023-05-10T18:32:41;2.38;;;2.15;;
12451;SDS011;6291;48.924;12.204;2023-05-10T18:37:46;2.72;;;2.25;;
12451;SDS011;6291;48.924;12.204;2023-05-10T18:42:50;2.57;;;2.20;;
12451;SDS011;6291;48.924;12.204;2023-05-10T18:47:53;3.20;;;2.30;;
12451;SDS011;6291;48.924;12.204;2023-05-10T18:52:58;2.80;;;2.23;;
12451;SDS011;6291;48.924;12.204;2023-05-10T18:58:02;2.72;;;1.70;;
12451;SDS011;6291;48.924;12.204;2023-05-10T19:03:05;2.40;;;2.00;;
12451;SDS011;6291;48.924;12.204;2023-05-10T19:08:10;2.70;;;2.10;;
12451;SDS011;6291;48.924;12.204;2023-05-10T19:13:14;2.63;;;1.90;;
12451;SDS011;6291;48.924;12.204;2023-05-10T19:18:18;3.67;;;1.80;;
12451;SDS011;6291;48.924;12.204;2023-05-10T19:23:23;2.85;;;2.63;;
12451;SDS011;6291;48.924;12.204;2023-05-10T19:28:27;3.00;;;1.80;;
12451;SDS011;6291;48.924;12.204;2023-05-10T19:33:31;1.63;;;1.50;;
12451;SDS011;6291;48.924;12.204;2023-05-10T19:38:35;2.50;;;1.73;;
12451;SDS011;6291;48.924;12.204;2023-05-10T19:43:39;1.85;;;1.70;;
12451;SDS011;6291;48.924;12.204;2023-05-10T19:48:44;2.40;;;1.90;;
12451;SDS011;6291;48.924;12.204;2023-05-10T19:53:48;2.40;;;1.93;;
12451;SDS011;6291;48.924;12.204;2023-05-10T19:58:52;2.30;;;2.10;;
12451;SDS011;6291;48.924;12.204;2023-05-10T20:03:55;3.22;;;1.73;;
12451;SDS011;6291;48.924;12.204;2023-05-10T20:09:00;2.78;;;1.90;;
12451;SDS011;6291;48.924;12.204;2023-05-10T20:14:04;5.60;;;2.00;;
12451;SDS011;6291;48.924;12.204;2023-05-10T20:19:08;2.08;;;1.65;;
12451;SDS011;6291;48.924;12.204;2023-05-10T20:24:13;2.47;;;2.00;;
12451;SDS011;6291;48.924;12.204;2023-05-10T20:29:16;4.20;;;2.88;;
12451;SDS011;6291;48.924;12.204;2023-05-10T20:34:20;2.70;;;2.00;;
12451;SDS011;6291;48.924;12.204;2023-05-10T20:39:25;3.33;;;2.13;;
12451;SDS011;6291;48.924;12.204;2023-05-10T20:44:29;5.50;;;3.33;;
12451;SDS011;6291;48.924;12.204;2023-05-10T20:49:33;2.00;;;1.90;;
12451;SDS011;6291;48.924;12.204;2023-05-10T20:54:40;2.43;;;2.00;;
12451;SDS011;6291;48.924;12.204;2023-05-10T20:59:44;2.13;;;1.90;;
12451;SDS011;6291;48.924;12.204;2023-05-10T21:04:47;2.43;;;2.10;;
12451;SDS011;6291;48.924;12.204;2023-05-10T21:09:52;2.05;;;1.88;;
12451;SDS011;6291;48.924;12.204;2023-05-10T21:14:56;3.67;;;2.10;;
12451;SDS011;6291;48.924;12.204;2023-05-10T21:19:59;3.45;;;2.17;;
12451;SDS011;6291;48.924;12.204;2023-05-10T21:25:06;2.23;;;2.03;;
12451;SDS011;6291;48.924;12.204;2023-05-10T21:30:10;2.88;;;2.33;;
12451;SDS011;6291;48.924;12.204;2023-05-10T21:35:13;3.25;;;2.55;;
12451;SDS011;6291;48.924;12.204;2023-05-10T21:40:19;4.50;;;2.85;;
12451;SDS011;6291;48.924;12.204;2023-05-10T21:45:22;3.22;;;2.88;;
12451;SDS011;6291;48.924;12.204;2023-05-10T21:50:26;3.70;;;2.90;;
12451;SDS011;6291;48.924;12.204;2023-05-10T21:55:31;4.18;;;3.10;;
12451;SDS011;6291;48.924;12.204;2023-05-10T22:00:35;4.00;;;3.60;;
12451;SDS011;6291;48.924;12.204;2023-05-10T22:05:38;4.03;;;3.43;;
12451;SDS011;6291;48.924;12.204;2023-05-10T22:10:43;3.25;;;2.70;;
12451;SDS011;6291;48.924;12.204;2023-05-10T22:15:46;4.95;;;2.72;;
12451;SDS011;6291;48.924;12.204;2023-05-10T22:20:50;3.30;;;2.83;;
12451;SDS011;6291;48.924;12.204;2023-05-10T22:25:56;4.93;;;2.90;;
12451;SDS011;6291;48.924;12.204;2023-05-10T22:31:07;3.53;;;3.23;;
12451;SDS011;6291;48.924;12.204;2023-05-10T22:36:11;4.90;;;2.97;;
12451;SDS011;6291;48.924;12.204;2023-05-10T22:41:16;3.90;;;2.87;;
12451;SDS011;6291;48.924;12.204;2023-05-10T22:46:20;4.28;;;3.70;;
12451;SDS011;6291;48.924;12.204;2023-05-10T22:51:23;4.90;;;4.40;;
12451;SDS011;6291;48.924;12.204;2023-05-10T22:56:28;5.95;;;5.38;;
12451;SDS011;6291;48.924;12.204;2023-05-10T23:01:32;6.13;;;5.53;;
12451;SDS011;6291;48.924;12.204;2023-05-10T23:06:35;7.00;;;5.68;;
12451;SDS011;6291;48.924;12.204;2023-05-10T23:11:41;5.90;;;5.32;;
12451;SDS011;6291;48.924;12.204;2023-05-10T23:16:44;5.93;;;5.43;;
12451;SDS011;6291;48.924;12.204;2023-05-10T23:21:48;5.88;;;5.32;;
12451;SDS011;6291;48.924;12.204;2023-05-10T23:26:52;4.45;;;3.95;;
12451;SDS011;6291;48.924;12.204;2023-05-10T23:31:56;3.65;;;3.33;;
12451;SDS011;6291;48.924;12.204;2023-05-10T23:37:00;3.80;;;3.50;;
12451;SDS011;6291;48.924;12.204;2023-05-10T23:42:05;4.85;;;3.60;;
12451;SDS011;6291;48.924;12.204;2023-05-10T23:52:11;6.20;;;5.70;;
12451;SDS011;6291;48.924;12.204;2023-05-10T23:57:16;8.17;;;7.43;;
